createdAt,value
2023-04-21T00:01:39.589Z,11.35
2023-04-21T00:04:15.276Z,11.32
2023-04-21T00:06:48.901Z,11.25
2023-04-21T00:09:22.006Z,11.27
2023-04-21T00:12:00.016Z,11.48
2023-04-21T00:14:34.944Z,10.89
2023-04-21T00:17:08.743Z,11.29
2023-04-21T00:19:42.325Z,11.07
2023-04-21T00:22:15.896Z,11.03
2023-04-21T00:24:49.201Z,10.88
2023-04-21T00:27:23.259Z,10.71
2023-04-21T00:29:57.573Z,11.05
2023-04-21T00:32:31.052Z,10.98
2023-04-21T00:35:04.298Z,10.90
2023-04-21T00:37:37.416Z,10.95
2023-04-21T00:40:10.882Z,10.78
2023-04-21T00:42:44.125Z,10.82
2023-04-21T00:45:18.429Z,10.52
2023-04-21T00:47:52.313Z,10.48
2023-04-21T00:50:25.523Z,10.55
2023-04-21T00:52:58.740Z,10.83
2023-04-21T00:55:32.368Z,10.75
2023-04-21T00:58:06.145Z,10.55
2023-04-21T01:00:40.659Z,10.50
2023-04-21T01:03:14.020Z,10.45
2023-04-21T01:05:47.545Z,10.43
2023-04-21T01:08:20.696Z,10.61
2023-04-21T01:10:53.779Z,10.59
2023-04-21T01:13:27.861Z,10.47
2023-04-21T01:16:02.704Z,10.42
2023-04-21T01:18:36.838Z,10.30
2023-04-21T01:21:09.764Z,10.25
2023-04-21T01:23:44.614Z,10.32
2023-04-21T01:26:18.879Z,10.46
2023-04-21T01:28:52.183Z,10.24
2023-04-21T01:31:25.302Z,10.40
2023-04-21T01:33:58.348Z,11.04
2023-04-21T01:36:31.526Z,10.74
2023-04-21T01:39:05.911Z,10.09
2023-04-21T01:41:39.032Z,10.03
2023-04-21T01:44:12.325Z,10.28
2023-04-21T01:46:45.552Z,10.24
2023-04-21T01:49:18.784Z,10.20
2023-04-21T01:51:51.852Z,10.22
2023-04-21T01:54:26.344Z,10.08
2023-04-21T01:56:59.418Z,9.94
2023-04-21T01:59:32.602Z,9.82
2023-04-21T02:02:05.862Z,9.89
2023-04-21T02:04:39.112Z,10.01
2023-04-21T02:07:12.223Z,10.22
2023-04-21T02:09:46.519Z,9.72
2023-04-21T02:12:20.258Z,9.71
2023-04-21T02:14:54.227Z,9.70
2023-04-21T02:17:27.357Z,9.81
2023-04-21T02:20:02.593Z,9.75
2023-04-21T02:22:36.974Z,9.72
2023-04-21T02:25:11.433Z,9.51
2023-04-21T02:27:44.642Z,9.79
2023-04-21T02:30:18.031Z,10.51
2023-04-21T02:32:51.304Z,10.17
2023-04-21T02:35:24.510Z,10.06
2023-04-21T02:37:57.472Z,10.43
2023-04-21T02:40:31.844Z,10.45
2023-04-21T02:43:05.026Z,9.67
2023-04-21T02:45:38.408Z,10.26
2023-04-21T02:48:11.518Z,9.58
2023-04-21T02:50:45.188Z,10.16
2023-04-21T02:53:18.108Z,10.30
2023-04-21T02:55:52.454Z,10.25
2023-04-21T02:58:25.571Z,10.52
2023-04-21T03:00:58.907Z,10.30
2023-04-21T03:03:32.156Z,9.87
2023-04-21T03:06:06.062Z,9.59
2023-04-21T03:08:39.066Z,9.71
2023-04-21T03:11:14.050Z,9.39
2023-04-21T03:13:47.545Z,9.52
2023-04-21T03:16:21.640Z,9.53
2023-04-21T03:18:54.769Z,9.20
2023-04-21T03:21:27.799Z,9.38
2023-04-21T03:24:00.824Z,10.11
2023-04-21T03:26:35.298Z,10.36
2023-04-21T03:29:08.872Z,9.94
2023-04-21T03:31:42.484Z,9.47
2023-04-21T03:34:15.853Z,9.40
2023-04-21T03:36:48.779Z,9.30
2023-04-21T03:39:21.992Z,9.04
2023-04-21T03:41:56.678Z,9.04
2023-04-21T03:44:29.822Z,9.26
2023-04-21T03:47:04.468Z,9.29
2023-04-21T03:49:37.370Z,9.11
2023-04-21T03:52:12.013Z,9.06
2023-04-21T03:54:44.933Z,9.03
2023-04-21T03:57:19.387Z,8.92
2023-04-21T03:59:52.475Z,9.00
2023-04-21T04:02:26.041Z,8.98
2023-04-21T04:04:59.276Z,9.15
2023-04-21T04:07:32.520Z,9.04
2023-04-21T04:10:05.895Z,9.05
2023-04-21T04:12:41.181Z,9.02
2023-04-21T04:15:14.915Z,8.98
2023-04-21T04:17:48.806Z,8.98
2023-04-21T04:20:21.805Z,9.12
2023-04-21T04:22:54.717Z,8.74
2023-04-21T04:25:27.826Z,8.78
2023-04-21T04:28:02.080Z,8.70
2023-04-21T04:30:35.410Z,8.49
2023-04-21T04:33:10.212Z,8.86
2023-04-21T04:35:43.508Z,8.79
2023-04-21T04:38:17.086Z,8.85
2023-04-21T04:40:54.724Z,8.86
2023-04-21T04:43:29.498Z,8.80
2023-04-21T04:46:02.763Z,8.49
2023-04-21T04:48:35.677Z,8.64
2023-04-21T04:51:08.708Z,8.45
2023-04-21T04:53:42.139Z,8.58
2023-04-21T04:56:15.156Z,8.82
2023-04-21T04:58:49.514Z,8.82
2023-04-21T05:01:26.052Z,8.83
2023-04-21T05:03:59.272Z,8.82
2023-04-21T05:06:32.478Z,8.98
2023-04-21T05:09:06.012Z,9.32
2023-04-21T05:11:39.042Z,9.23
2023-04-21T05:14:13.911Z,9.53
2023-04-21T05:16:47.620Z,9.55
2023-04-21T05:19:20.511Z,9.66
2023-04-21T05:21:53.618Z,9.88
2023-04-21T05:24:26.619Z,10.22
2023-04-21T05:26:59.860Z,10.41
2023-04-21T05:29:34.756Z,10.31
2023-04-21T05:32:09.191Z,10.52
2023-04-21T05:34:42.472Z,10.71
2023-04-21T05:37:15.590Z,11.03
2023-04-21T05:39:48.800Z,10.94
2023-04-21T05:42:21.966Z,10.89
2023-04-21T05:44:56.804Z,11.08
2023-04-21T05:47:30.163Z,11.31
2023-04-21T05:50:03.169Z,11.23
2023-04-21T05:52:37.316Z,11.25
2023-04-21T05:55:10.430Z,11.45
2023-04-21T05:57:43.345Z,11.53
2023-04-21T06:00:18.508Z,11.49
2023-04-21T06:02:52.109Z,11.64
2023-04-21T06:05:25.262Z,11.88
2023-04-21T06:07:58.503Z,12.04
2023-04-21T06:10:32.120Z,12.24
2023-04-21T06:13:05.739Z,12.25
2023-04-21T06:15:40.383Z,12.32
2023-04-21T06:18:13.423Z,12.51
2023-04-21T06:20:51.005Z,12.58
2023-04-21T06:23:23.885Z,12.75
2023-04-21T06:26:01.790Z,12.74
2023-04-21T06:28:36.370Z,12.91
2023-04-21T06:31:15.301Z,13.03
2023-04-21T06:33:50.988Z,12.91
2023-04-21T06:36:24.416Z,13.07
2023-04-21T06:38:57.523Z,13.23
2023-04-21T06:41:30.942Z,13.23
2023-04-21T06:44:03.815Z,13.21
2023-04-21T06:46:38.177Z,13.32
2023-04-21T06:49:11.947Z,13.43
2023-04-21T06:51:45.007Z,13.40
2023-04-21T06:54:18.326Z,13.43
2023-04-21T06:56:51.616Z,13.39
2023-04-21T06:59:24.610Z,13.35
2023-04-21T07:01:58.931Z,13.39
2023-04-21T07:04:32.415Z,13.61
2023-04-21T07:07:05.499Z,13.54
2023-04-21T07:09:38.529Z,13.66
2023-04-21T07:12:12.296Z,13.76
2023-04-21T07:14:45.747Z,13.78
2023-04-21T07:17:20.502Z,13.74
2023-04-21T07:19:53.804Z,13.82
2023-04-21T07:22:26.700Z,13.86
2023-04-21T07:24:59.768Z,13.73
2023-04-21T07:27:33.296Z,13.80
2023-04-21T07:30:06.933Z,13.78
2023-04-21T07:32:41.388Z,13.78
2023-04-21T07:35:14.549Z,13.86
2023-04-21T07:37:48.165Z,14.09
2023-04-21T07:40:22.662Z,14.17
2023-04-21T07:42:56.311Z,14.09
2023-04-21T07:45:29.360Z,14.06
2023-04-21T07:48:03.961Z,14.03
2023-04-21T07:50:37.233Z,14.20
2023-04-21T07:53:10.199Z,14.37
2023-04-21T07:55:43.166Z,14.56
2023-04-21T07:58:16.525Z,14.57
2023-04-21T08:00:49.745Z,14.68
2023-04-21T08:03:24.932Z,14.74
2023-04-21T08:05:58.225Z,14.87
2023-04-21T08:08:32.078Z,15.11
2023-04-21T08:11:05.192Z,14.98
2023-04-21T08:13:39.203Z,14.97
2023-04-21T08:16:12.672Z,15.04
2023-04-21T08:18:47.036Z,14.95
2023-04-21T08:21:20.165Z,14.99
2023-04-21T08:23:53.152Z,15.31
2023-04-21T08:26:26.456Z,15.31
2023-04-21T08:29:00.729Z,15.43
2023-04-21T08:31:35.219Z,15.69
2023-04-21T08:34:09.728Z,15.78
2023-04-21T08:36:43.156Z,15.92
2023-04-21T08:39:16.895Z,15.91
2023-04-21T08:41:50.880Z,16.05
2023-04-21T08:44:24.138Z,16.25
2023-04-21T08:46:57.849Z,16.35
2023-04-21T08:49:32.682Z,16.40
2023-04-21T08:52:05.847Z,16.41
2023-04-21T08:54:39.382Z,16.45
2023-04-21T08:57:15.999Z,16.73
2023-04-21T08:59:49.337Z,16.75
2023-04-21T09:02:23.459Z,16.77
2023-04-21T09:05:00.105Z,16.80
2023-04-21T09:07:34.135Z,17.00
2023-04-21T09:10:08.135Z,16.79
2023-04-21T09:12:41.866Z,16.78
2023-04-21T09:15:15.224Z,16.80
2023-04-21T09:17:48.161Z,16.97
2023-04-21T09:20:23.512Z,17.05
2023-04-21T09:22:56.624Z,17.20
2023-04-21T09:25:32.832Z,17.25
2023-04-21T09:28:08.316Z,17.54
2023-04-21T09:30:42.089Z,17.42
2023-04-21T09:33:27.826Z,17.24
2023-04-21T09:36:04.418Z,17.14
2023-04-21T09:38:37.594Z,17.42
2023-04-21T09:41:11.088Z,17.29
2023-04-21T09:43:44.141Z,17.29
2023-04-21T09:46:18.310Z,17.52
2023-04-21T09:48:53.192Z,17.52
2023-04-21T09:51:45.963Z,17.46
2023-04-21T09:56:59.755Z,17.60
2023-04-21T09:59:33.933Z,17.73
2023-04-21T10:02:07.880Z,17.72
2023-04-21T10:04:43.101Z,17.71
2023-04-21T10:07:18.178Z,17.62
2023-04-21T10:09:53.729Z,17.92
2023-04-21T10:12:28.245Z,17.71
2023-04-21T10:15:04.762Z,17.97
2023-04-21T10:17:38.565Z,17.80
2023-04-21T10:20:16.578Z,17.90
2023-04-21T10:22:58.702Z,17.97
2023-04-21T10:25:33.459Z,17.88
2023-04-21T10:28:07.672Z,17.87
2023-04-21T10:30:41.277Z,17.99
2023-04-21T10:33:18.807Z,17.92
2023-04-21T10:36:03.129Z,18.04
2023-04-21T10:38:41.883Z,18.13
2023-04-21T10:41:28.319Z,18.06
2023-04-21T10:44:01.632Z,18.41
2023-04-21T10:46:36.483Z,18.20
2023-04-21T10:49:10.356Z,18.24
2023-04-21T10:52:02.698Z,18.31
2023-04-21T10:54:43.005Z,18.32
2023-04-21T10:57:17.311Z,18.40
2023-04-21T10:59:50.927Z,18.31
2023-04-21T11:02:24.076Z,18.14
2023-04-21T11:04:57.533Z,18.26
2023-04-21T11:07:31.462Z,18.43
2023-04-21T11:10:06.551Z,18.45
2023-04-21T11:12:41.466Z,18.75
2023-04-21T11:15:15.905Z,18.59
2023-04-21T11:17:51.478Z,18.62
2023-04-21T11:20:24.774Z,18.54
2023-04-21T11:22:57.888Z,18.76
2023-04-21T11:25:32.210Z,18.76
2023-04-21T11:28:06.465Z,18.50
2023-04-21T11:30:39.462Z,18.45
2023-04-21T11:33:12.566Z,18.48
2023-04-21T11:35:45.825Z,18.57
2023-04-21T11:38:19.026Z,18.74
2023-04-21T11:40:54.030Z,18.60
2023-04-21T11:43:27.446Z,18.68
2023-04-21T11:46:12.537Z,18.70
2023-04-21T11:48:46.354Z,18.55
2023-04-21T11:51:22.192Z,18.62
2023-04-21T11:53:55.685Z,18.62
2023-04-21T11:56:30.054Z,18.46
2023-04-21T11:59:07.605Z,18.21
2023-04-21T12:01:44.477Z,18.31
2023-04-21T12:04:18.380Z,18.27
2023-04-21T12:06:57.960Z,18.30
2023-04-21T12:09:31.525Z,18.37
2023-04-21T12:12:08.387Z,18.59
2023-04-21T12:14:43.605Z,18.41
2023-04-21T12:17:17.011Z,18.54
2023-04-21T12:19:50.617Z,18.64
2023-04-21T12:22:24.136Z,18.35
2023-04-21T12:24:57.443Z,18.02
2023-04-21T12:27:32.037Z,18.12
2023-04-21T12:30:05.323Z,18.25
2023-04-21T12:32:38.347Z,18.22
2023-04-21T12:35:11.365Z,18.34
2023-04-21T12:37:45.623Z,18.39
2023-04-21T12:40:19.356Z,18.33
2023-04-21T12:42:53.826Z,18.30
2023-04-21T12:45:27.048Z,18.30
2023-04-21T12:48:00.947Z,18.25
2023-04-21T12:50:34.092Z,18.39
2023-04-21T12:53:09.396Z,18.49
2023-04-21T12:55:49.760Z,18.39
2023-04-21T12:58:31.750Z,18.43
2023-04-21T13:01:04.976Z,18.51
2023-04-21T13:03:38.398Z,18.40
2023-04-21T13:06:11.809Z,18.18
2023-04-21T13:08:44.762Z,18.17
2023-04-21T13:11:17.827Z,18.39
2023-04-21T13:13:52.809Z,18.36
2023-04-21T13:16:28.633Z,18.19
2023-04-21T13:19:04.017Z,18.23
2023-04-21T13:21:37.256Z,18.14
2023-04-21T13:24:14.360Z,18.22
2023-04-21T13:26:47.794Z,18.10
2023-04-21T13:29:22.242Z,18.05
2023-04-21T13:31:55.922Z,18.20
2023-04-21T13:34:29.357Z,18.33
2023-04-21T13:37:03.060Z,18.42
2023-04-21T13:39:36.294Z,18.23
2023-04-21T13:42:09.405Z,18.37
2023-04-21T13:44:44.262Z,18.37
2023-04-21T13:47:17.898Z,18.25
2023-04-21T13:49:51.550Z,18.08
2023-04-21T13:52:24.547Z,18.23
2023-04-21T13:54:57.667Z,18.21
2023-04-21T13:57:30.705Z,18.10
2023-04-21T14:00:06.709Z,18.22
2023-04-21T14:02:40.385Z,18.45
2023-04-21T14:05:13.957Z,18.58
2023-04-21T14:07:47.031Z,18.42
2023-04-21T14:10:20.016Z,18.39
2023-04-21T14:12:54.863Z,18.51
2023-04-21T14:15:29.949Z,18.40
2023-04-21T14:18:03.099Z,18.60
2023-04-21T14:20:36.035Z,18.54
2023-04-21T14:23:09.233Z,18.61
2023-04-21T14:25:42.218Z,18.67
2023-04-21T14:28:15.743Z,18.29
2023-04-21T14:30:50.372Z,18.37
2023-04-21T14:33:23.747Z,18.38
2023-04-21T14:35:57.032Z,18.34
2023-04-21T14:38:30.806Z,18.41
2023-04-21T14:41:03.949Z,18.47
2023-04-21T14:43:37.128Z,18.51
2023-04-21T14:46:11.849Z,18.29
2023-04-21T14:48:45.112Z,18.35
2023-04-21T14:51:18.903Z,18.40
2023-04-21T14:53:52.223Z,18.10
2023-04-21T14:56:25.536Z,17.89
2023-04-21T14:58:58.643Z,17.70
2023-04-21T15:01:33.416Z,17.83
2023-04-21T15:04:07.337Z,17.66
2023-04-21T15:06:40.943Z,17.95
2023-04-21T15:09:14.294Z,17.90
2023-04-21T15:11:48.111Z,18.05
2023-04-21T15:14:21.618Z,17.89
2023-04-21T15:16:56.743Z,17.74
2023-04-21T15:19:29.979Z,17.89
2023-04-21T15:22:04.763Z,17.80
2023-04-21T15:24:37.644Z,17.84
2023-04-21T15:27:10.644Z,17.63
2023-04-21T15:29:43.950Z,17.79
2023-04-21T15:32:18.813Z,17.72
2023-04-21T15:34:51.998Z,17.54
2023-04-21T15:37:26.030Z,17.60
2023-04-21T15:39:59.303Z,17.58
2023-04-21T15:42:32.249Z,17.40
2023-04-21T15:45:05.553Z,17.42
2023-04-21T15:47:40.205Z,17.62
2023-04-21T15:50:13.501Z,17.55
2023-04-21T15:52:46.550Z,17.35
2023-04-21T15:55:19.981Z,17.52
2023-04-21T15:57:53.351Z,17.44
2023-04-21T16:00:26.480Z,17.20
2023-04-21T16:03:01.412Z,17.28
2023-04-21T16:05:35.062Z,17.31
2023-04-21T16:08:09.868Z,17.25
2023-04-21T16:10:45.547Z,17.32
2023-04-21T16:13:19.300Z,17.12
2023-04-21T16:15:53.157Z,17.11
2023-04-21T16:18:28.044Z,16.97
2023-04-21T16:21:01.143Z,16.97
2023-04-21T16:23:34.068Z,16.78
2023-04-21T16:26:09.058Z,16.54
2023-04-21T16:28:42.153Z,16.90
2023-04-21T16:31:15.401Z,16.90
2023-04-21T16:33:52.694Z,16.68
2023-04-21T16:36:25.893Z,16.61
2023-04-21T16:38:59.182Z,16.48
2023-04-21T16:41:32.409Z,16.83
2023-04-21T16:44:05.548Z,16.71
2023-04-21T16:46:39.368Z,16.49
2023-04-21T16:49:13.884Z,16.29
2023-04-21T16:51:47.401Z,16.31
2023-04-21T16:54:20.976Z,16.50
2023-04-21T16:56:54.032Z,16.03
2023-04-21T16:59:27.062Z,15.91
2023-04-21T17:02:00.266Z,15.91
2023-04-21T17:04:34.849Z,15.97
2023-04-21T17:07:07.924Z,16.19
2023-04-21T17:09:40.805Z,15.74
2023-04-21T17:12:14.519Z,15.90
2023-04-21T17:14:48.678Z,15.48
2023-04-21T17:17:23.195Z,15.59
2023-04-21T17:19:57.714Z,16.13
2023-04-21T17:22:31.364Z,15.47
2023-04-21T17:25:04.352Z,15.98
2023-04-21T17:27:38.057Z,15.79
2023-04-21T17:30:11.673Z,15.47
2023-04-21T17:32:45.051Z,14.70
2023-04-21T17:35:19.326Z,14.06
2023-04-21T17:37:52.514Z,14.32
2023-04-21T17:40:26.172Z,14.26
2023-04-21T17:42:59.162Z,13.71
2023-04-21T17:45:32.327Z,13.83
2023-04-21T17:48:06.030Z,13.88
2023-04-21T17:50:40.409Z,13.38
2023-04-21T17:53:13.622Z,13.85
2023-04-21T17:55:46.677Z,14.21
2023-04-21T17:58:19.736Z,14.27
2023-04-21T18:00:53.041Z,14.21
2023-04-21T18:03:27.371Z,14.74
2023-04-21T18:06:02.085Z,13.84
2023-04-21T18:08:35.164Z,13.40
2023-04-21T18:11:09.003Z,13.43
2023-04-21T18:13:42.240Z,13.71
2023-04-21T18:16:15.631Z,13.85
2023-04-21T18:18:50.035Z,13.24
2023-04-21T18:21:24.688Z,14.22
2023-04-21T18:23:57.904Z,13.50
2023-04-21T18:26:31.787Z,14.03
2023-04-21T18:29:04.729Z,13.40
2023-04-21T18:31:37.820Z,13.32
2023-04-21T18:34:11.961Z,13.38
2023-04-21T18:36:46.231Z,12.99
2023-04-21T18:39:19.472Z,13.05
2023-04-21T18:41:52.466Z,13.05
2023-04-21T18:44:25.490Z,13.74
2023-04-21T18:46:58.620Z,13.48
2023-04-21T18:49:32.421Z,13.10
2023-04-21T18:52:06.871Z,13.27
2023-04-21T18:54:40.203Z,13.55
2023-04-21T18:57:13.232Z,13.90
2023-04-21T18:59:46.518Z,13.34
2023-04-21T19:02:19.558Z,13.60
2023-04-21T19:04:53.152Z,13.49
2023-04-21T19:07:28.026Z,13.14
2023-04-21T19:10:01.105Z,13.35
2023-04-21T19:12:34.673Z,13.34
2023-04-21T19:15:08.612Z,13.02
2023-04-21T19:17:41.983Z,12.94
2023-04-21T19:20:15.624Z,12.61
2023-04-21T19:22:50.390Z,12.75
2023-04-21T19:25:23.541Z,12.74
2023-04-21T19:27:56.690Z,12.46
2023-04-21T19:30:29.712Z,12.39
2023-04-21T19:33:02.787Z,12.71
2023-04-21T19:35:36.768Z,13.02
2023-04-21T19:38:11.754Z,13.17
2023-04-21T19:40:45.452Z,13.10
2023-04-21T19:43:20.354Z,12.83
2023-04-21T19:45:53.529Z,12.65
2023-04-21T19:48:26.831Z,12.54
2023-04-21T19:51:00.359Z,12.80
2023-04-21T19:53:34.774Z,12.65
2023-04-21T19:56:08.137Z,12.79
2023-04-21T19:58:41.350Z,12.46
2023-04-21T20:01:14.350Z,12.38
2023-04-21T20:03:47.995Z,12.44
2023-04-21T20:06:23.291Z,12.52
2023-04-21T20:08:57.824Z,12.90
2023-04-21T20:11:30.859Z,12.81
2023-04-21T20:14:04.452Z,12.42
2023-04-21T20:16:38.305Z,12.09
2023-04-21T20:19:12.424Z,12.08
2023-04-21T20:21:45.651Z,12.13
2023-04-21T20:24:20.276Z,11.95
2023-04-21T20:26:53.564Z,11.97
2023-04-21T20:29:26.966Z,12.28
2023-04-21T20:31:59.957Z,12.58
2023-04-21T20:34:33.708Z,12.79
2023-04-21T20:37:07.875Z,13.31
2023-04-21T20:39:42.827Z,12.70
2023-04-21T20:42:15.871Z,12.08
2023-04-21T20:44:48.998Z,11.88
2023-04-21T20:47:22.528Z,12.57
2023-04-21T20:49:55.949Z,12.34
2023-04-21T20:52:29.203Z,12.48
2023-04-21T20:55:03.605Z,13.10
2023-04-21T20:57:36.841Z,13.47
2023-04-21T21:00:11.048Z,13.50
2023-04-21T21:02:44.293Z,13.37
2023-04-21T21:05:18.033Z,12.26
2023-04-21T21:07:51.363Z,12.25
2023-04-21T21:10:25.767Z,12.66
2023-04-21T21:12:59.789Z,12.94
2023-04-21T21:15:34.003Z,13.07
2023-04-21T21:18:07.415Z,12.12
2023-04-21T21:20:40.854Z,12.47
2023-04-21T21:23:13.871Z,12.95
2023-04-21T21:25:48.632Z,12.98
2023-04-21T21:28:21.479Z,13.14
2023-04-21T21:30:54.685Z,12.67
2023-04-21T21:33:27.611Z,12.98
2023-04-21T21:36:01.173Z,12.86
2023-04-21T21:38:34.311Z,13.02
2023-04-21T21:41:10.538Z,12.44
2023-04-21T21:43:43.507Z,12.30
2023-04-21T21:46:16.590Z,13.29
2023-04-21T21:48:49.913Z,12.24
2023-04-21T21:51:23.165Z,12.36
2023-04-21T21:53:56.100Z,12.68
2023-04-21T21:56:30.465Z,12.77
2023-04-21T21:59:03.979Z,12.54
2023-04-21T22:01:37.078Z,12.32
2023-04-21T22:04:10.157Z,12.28
2023-04-21T22:06:45.554Z,12.40
2023-04-21T22:09:18.607Z,11.95
2023-04-21T22:11:57.851Z,11.74
2023-04-21T22:14:31.290Z,11.93
2023-04-21T22:17:06.776Z,12.39
2023-04-21T22:19:41.780Z,12.22
2023-04-21T22:22:14.759Z,12.34
2023-04-21T22:24:47.836Z,12.07
2023-04-21T22:27:22.513Z,11.96
2023-04-21T22:29:55.555Z,11.71
2023-04-21T22:32:32.148Z,11.63
2023-04-21T22:35:05.757Z,11.55
2023-04-21T22:37:38.889Z,11.33
2023-04-21T22:40:12.192Z,11.56
2023-04-21T22:42:46.764Z,11.33
2023-04-21T22:45:19.821Z,11.63
2023-04-21T22:47:53.354Z,11.39
2023-04-21T22:50:26.660Z,11.30
2023-04-21T22:52:59.753Z,11.37
2023-04-21T22:55:32.737Z,11.48
2023-04-21T22:58:07.121Z,11.24
2023-04-21T23:00:41.099Z,11.82
2023-04-21T23:03:14.570Z,12.33
2023-04-21T23:05:47.728Z,12.22
2023-04-21T23:08:20.695Z,12.29
2023-04-21T23:10:53.828Z,12.38
2023-04-21T23:13:28.825Z,11.75
2023-04-21T23:16:02.393Z,11.43
2023-04-21T23:18:35.975Z,11.87
2023-04-21T23:21:09.125Z,11.24
2023-04-21T23:23:42.139Z,11.28
2023-04-21T23:26:15.078Z,11.60
2023-04-21T23:28:49.422Z,11.62
2023-04-21T23:31:22.856Z,11.72
2023-04-21T23:33:56.314Z,11.86
2023-04-21T23:36:29.340Z,11.48
2023-04-21T23:39:02.285Z,11.42
2023-04-21T23:41:35.287Z,11.47
2023-04-21T23:44:09.745Z,11.95
2023-04-21T23:46:43.276Z,11.31
2023-04-21T23:49:16.432Z,10.94
2023-04-21T23:51:49.932Z,11.33
2023-04-21T23:54:23.082Z,11.21
2023-04-21T23:56:57.334Z,11.20
2023-04-21T23:59:31.645Z,11.46
